sensor_id;sensor_type;location;lat;lon;timestamp;P1;durP1;ratioP1;P2;durP2;ratioP2
50249;SDS011;36133;42.522;27.456;2023-03-08T00:02:17;75.68;;;41.88;;
50249;SDS011;36133;42.522;27.456;2023-03-08T00:04:42;71.80;;;40.33;;
50249;SDS011;36133;42.522;27.456;2023-03-08T00:07:08;62.97;;;36.90;;
50249;SDS011;36133;42.522;27.456;2023-03-08T00:09:33;75.35;;;39.95;;
50249;SDS011;36133;42.522;27.456;2023-03-08T00:12:02;72.22;;;38.72;;
50249;SDS011;36133;42.522;27.456;2023-03-08T00:14:27;75.50;;;41.80;;
50249;SDS011;36133;42.522;27.456;2023-03-08T00:16:53;101.78;;;49.63;;
50249;SDS011;36133;42.522;27.456;2023-03-08T00:19:18;111.32;;;56.38;;
50249;SDS011;36133;42.522;27.456;2023-03-08T00:21:44;102.60;;;61.00;;
50249;SDS011;36133;42.522;27.456;2023-03-08T00:24:10;102.28;;;57.85;;
50249;SDS011;36133;42.522;27.456;2023-03-08T00:26:36;101.57;;;56.30;;
50249;SDS011;36133;42.522;27.456;2023-03-08T00:29:01;109.45;;;58.55;;
50249;SDS011;36133;42.522;27.456;2023-03-08T00:31:27;104.80;;;58.85;;
50249;SDS011;36133;42.522;27.456;2023-03-08T00:33:53;102.93;;;57.28;;
50249;SDS011;36133;42.522;27.456;2023-03-08T00:36:19;107.75;;;59.90;;
50249;SDS011;36133;42.522;27.456;2023-03-08T00:38:45;111.35;;;56.97;;
50249;SDS011;36133;42.522;27.456;2023-03-08T00:41:12;99.45;;;55.17;;
50249;SDS011;36133;42.522;27.456;2023-03-08T00:43:38;92.75;;;53.30;;
50249;SDS011;36133;42.522;27.456;2023-03-08T00:46:06;96.90;;;53.03;;
50249;SDS011;36133;42.522;27.456;2023-03-08T00:48:31;106.35;;;56.00;;
50249;SDS011;36133;42.522;27.456;2023-03-08T00:50:57;105.75;;;54.20;;
50249;SDS011;36133;42.522;27.456;2023-03-08T00:56:46;76.53;;;40.55;;
50249;SDS011;36133;42.522;27.456;2023-03-08T00:59:14;71.45;;;40.03;;
50249;SDS011;36133;42.522;27.456;2023-03-08T01:01:40;56.15;;;33.30;;
50249;SDS011;36133;42.522;27.456;2023-03-08T01:04:05;58.33;;;32.15;;
50249;SDS011;36133;42.522;27.456;2023-03-08T01:09:55;67.65;;;36.25;;
50249;SDS011;36133;42.522;27.456;2023-03-08T01:14:50;60.88;;;35.10;;
50249;SDS011;36133;42.522;27.456;2023-03-08T01:17:16;55.17;;;32.33;;
50249;SDS011;36133;42.522;27.456;2023-03-08T01:19:42;53.65;;;32.85;;
50249;SDS011;36133;42.522;27.456;2023-03-08T01:22:08;54.60;;;32.78;;
50249;SDS011;36133;42.522;27.456;2023-03-08T01:27:57;52.97;;;32.53;;
50249;SDS011;36133;42.522;27.456;2023-03-08T01:30:22;52.90;;;31.38;;
50249;SDS011;36133;42.522;27.456;2023-03-08T01:32:48;54.08;;;31.55;;
50249;SDS011;36133;42.522;27.456;2023-03-08T01:35:14;48.22;;;28.08;;
50249;SDS011;36133;42.522;27.456;2023-03-08T01:37:39;48.22;;;28.17;;
50249;SDS011;36133;42.522;27.456;2023-03-08T01:40:05;44.97;;;24.20;;
50249;SDS011;36133;42.522;27.456;2023-03-08T01:42:32;41.22;;;22.67;;
50249;SDS011;36133;42.522;27.456;2023-03-08T01:47:26;41.53;;;22.08;;
50249;SDS011;36133;42.522;27.456;2023-03-08T01:49:53;33.20;;;18.42;;
50249;SDS011;36133;42.522;27.456;2023-03-08T01:52:27;32.72;;;19.95;;
50249;SDS011;36133;42.522;27.456;2023-03-08T01:54:56;32.05;;;18.33;;
50249;SDS011;36133;42.522;27.456;2023-03-08T01:57:26;26.38;;;17.50;;
50249;SDS011;36133;42.522;27.456;2023-03-08T01:59:56;31.17;;;17.38;;
50249;SDS011;36133;42.522;27.456;2023-03-08T02:02:29;29.17;;;17.48;;
50249;SDS011;36133;42.522;27.456;2023-03-08T02:05:00;34.47;;;18.30;;
50249;SDS011;36133;42.522;27.456;2023-03-08T02:07:25;31.30;;;17.73;;
50249;SDS011;36133;42.522;27.456;2023-03-08T02:09:51;34.00;;;16.45;;
50249;SDS011;36133;42.522;27.456;2023-03-08T02:12:17;31.20;;;16.95;;
50249;SDS011;36133;42.522;27.456;2023-03-08T02:14:43;31.35;;;17.20;;
50249;SDS011;36133;42.522;27.456;2023-03-08T02:17:09;32.63;;;16.17;;
50249;SDS011;36133;42.522;27.456;2023-03-08T02:26:05;35.78;;;18.20;;
50249;SDS011;36133;42.522;27.456;2023-03-08T02:28:30;43.72;;;19.70;;
50249;SDS011;36133;42.522;27.456;2023-03-08T02:30:57;37.22;;;19.98;;
50249;SDS011;36133;42.522;27.456;2023-03-08T02:33:23;31.20;;;19.45;;
50249;SDS011;36133;42.522;27.456;2023-03-08T02:35:48;40.60;;;21.48;;
50249;SDS011;36133;42.522;27.456;2023-03-08T02:38:15;45.00;;;25.52;;
50249;SDS011;36133;42.522;27.456;2023-03-08T02:40:42;52.30;;;26.63;;
50249;SDS011;36133;42.522;27.456;2023-03-08T02:43:08;42.03;;;23.63;;
50249;SDS011;36133;42.522;27.456;2023-03-08T02:45:34;53.65;;;27.02;;
50249;SDS011;36133;42.522;27.456;2023-03-08T02:48:00;60.40;;;31.23;;
50249;SDS011;36133;42.522;27.456;2023-03-08T02:53:57;54.15;;;28.20;;
50249;SDS011;36133;42.522;27.456;2023-03-08T02:56:22;49.00;;;25.73;;
50249;SDS011;36133;42.522;27.456;2023-03-08T02:58:48;51.03;;;25.58;;
50249;SDS011;36133;42.522;27.456;2023-03-08T03:01:14;48.80;;;26.08;;
50249;SDS011;36133;42.522;27.456;2023-03-08T03:03:45;61.78;;;30.58;;
50249;SDS011;36133;42.522;27.456;2023-03-08T03:06:14;63.95;;;31.00;;
50249;SDS011;36133;42.522;27.456;2023-03-08T03:08:41;68.10;;;34.63;;
50249;SDS011;36133;42.522;27.456;2023-03-08T03:11:25;74.25;;;38.05;;
50249;SDS011;36133;42.522;27.456;2023-03-08T03:13:55;82.35;;;41.47;;
50249;SDS011;36133;42.522;27.456;2023-03-08T03:16:21;92.18;;;44.38;;
50249;SDS011;36133;42.522;27.456;2023-03-08T03:18:47;93.38;;;45.47;;
50249;SDS011;36133;42.522;27.456;2023-03-08T03:21:13;102.20;;;46.22;;
50249;SDS011;36133;42.522;27.456;2023-03-08T03:23:39;78.38;;;35.90;;
50249;SDS011;36133;42.522;27.456;2023-03-08T03:26:06;68.00;;;32.83;;
50249;SDS011;36133;42.522;27.456;2023-03-08T03:28:33;67.95;;;28.30;;
50249;SDS011;36133;42.522;27.456;2023-03-08T03:30:59;42.75;;;21.95;;
50249;SDS011;36133;42.522;27.456;2023-03-08T03:33:25;41.20;;;22.30;;
50249;SDS011;36133;42.522;27.456;2023-03-08T03:35:50;40.78;;;22.13;;
50249;SDS011;36133;42.522;27.456;2023-03-08T03:38:16;34.72;;;19.63;;
50249;SDS011;36133;42.522;27.456;2023-03-08T03:40:41;39.42;;;19.02;;
50249;SDS011;36133;42.522;27.456;2023-03-08T03:43:08;34.58;;;17.83;;
50249;SDS011;36133;42.522;27.456;2023-03-08T03:45:33;37.35;;;19.63;;
50249;SDS011;36133;42.522;27.456;2023-03-08T03:47:59;39.53;;;20.05;;
50249;SDS011;36133;42.522;27.456;2023-03-08T03:50:31;35.22;;;20.25;;
50249;SDS011;36133;42.522;27.456;2023-03-08T03:52:57;45.35;;;20.98;;
50249;SDS011;36133;42.522;27.456;2023-03-08T03:55:22;39.38;;;20.13;;
50249;SDS011;36133;42.522;27.456;2023-03-08T03:57:48;53.78;;;26.88;;
50249;SDS011;36133;42.522;27.456;2023-03-08T04:00:14;66.97;;;32.42;;
50249;SDS011;36133;42.522;27.456;2023-03-08T04:02:40;66.07;;;33.05;;
50249;SDS011;36133;42.522;27.456;2023-03-08T04:05:06;68.38;;;32.83;;
50249;SDS011;36133;42.522;27.456;2023-03-08T04:07:32;66.03;;;32.67;;
50249;SDS011;36133;42.522;27.456;2023-03-08T04:09:58;55.60;;;30.98;;
50249;SDS011;36133;42.522;27.456;2023-03-08T04:12:23;42.72;;;21.65;;
50249;SDS011;36133;42.522;27.456;2023-03-08T04:14:49;41.45;;;22.30;;
50249;SDS011;36133;42.522;27.456;2023-03-08T04:17:14;41.35;;;22.80;;
50249;SDS011;36133;42.522;27.456;2023-03-08T04:19:40;42.95;;;23.20;;
50249;SDS011;36133;42.522;27.456;2023-03-08T04:22:05;45.92;;;24.58;;
50249;SDS011;36133;42.522;27.456;2023-03-08T04:24:31;48.67;;;24.85;;
50249;SDS011;36133;42.522;27.456;2023-03-08T04:26:57;44.53;;;23.38;;
50249;SDS011;36133;42.522;27.456;2023-03-08T04:29:22;45.25;;;24.08;;
50249;SDS011;36133;42.522;27.456;2023-03-08T04:31:48;43.10;;;22.40;;
50249;SDS011;36133;42.522;27.456;2023-03-08T04:37:13;51.25;;;25.88;;
50249;SDS011;36133;42.522;27.456;2023-03-08T04:39:39;48.33;;;24.30;;
50249;SDS011;36133;42.522;27.456;2023-03-08T04:42:05;38.28;;;20.90;;
50249;SDS011;36133;42.522;27.456;2023-03-08T04:44:30;37.97;;;19.33;;
50249;SDS011;36133;42.522;27.456;2023-03-08T04:46:56;38.15;;;21.02;;
50249;SDS011;36133;42.522;27.456;2023-03-08T04:49:22;42.33;;;22.05;;
50249;SDS011;36133;42.522;27.456;2023-03-08T04:51:48;43.83;;;22.40;;
50249;SDS011;36133;42.522;27.456;2023-03-08T04:54:14;46.05;;;22.67;;
50249;SDS011;36133;42.522;27.456;2023-03-08T04:56:39;45.60;;;23.13;;
50249;SDS011;36133;42.522;27.456;2023-03-08T04:59:05;44.25;;;22.75;;
50249;SDS011;36133;42.522;27.456;2023-03-08T05:01:30;39.53;;;22.75;;
50249;SDS011;36133;42.522;27.456;2023-03-08T05:03:56;44.10;;;23.17;;
50249;SDS011;36133;42.522;27.456;2023-03-08T05:06:22;45.70;;;23.60;;
50249;SDS011;36133;42.522;27.456;2023-03-08T05:08:49;49.42;;;24.52;;
50249;SDS011;36133;42.522;27.456;2023-03-08T05:11:19;44.97;;;23.15;;
50249;SDS011;36133;42.522;27.456;2023-03-08T05:13:47;48.97;;;26.67;;
50249;SDS011;36133;42.522;27.456;2023-03-08T05:16:13;63.60;;;30.40;;
50249;SDS011;36133;42.522;27.456;2023-03-08T05:18:39;74.22;;;36.63;;
50249;SDS011;36133;42.522;27.456;2023-03-08T05:21:12;82.63;;;41.03;;
50249;SDS011;36133;42.522;27.456;2023-03-08T05:23:39;76.03;;;35.13;;
50249;SDS011;36133;42.522;27.456;2023-03-08T05:26:06;59.53;;;28.88;;
50249;SDS011;36133;42.522;27.456;2023-03-08T05:28:33;50.80;;;26.45;;
50249;SDS011;36133;42.522;27.456;2023-03-08T05:33:37;65.85;;;31.98;;
50249;SDS011;36133;42.522;27.456;2023-03-08T05:36:04;63.05;;;29.67;;
50249;SDS011;36133;42.522;27.456;2023-03-08T05:38:30;44.00;;;22.45;;
50249;SDS011;36133;42.522;27.456;2023-03-08T05:41:03;37.55;;;18.95;;
50249;SDS011;36133;42.522;27.456;2023-03-08T05:43:33;33.08;;;17.90;;
50249;SDS011;36133;42.522;27.456;2023-03-08T05:46:20;30.13;;;15.20;;
50249;SDS011;36133;42.522;27.456;2023-03-08T05:49:22;29.95;;;16.08;;
50249;SDS011;36133;42.522;27.456;2023-03-08T05:51:48;25.77;;;15.82;;
50249;SDS011;36133;42.522;27.456;2023-03-08T05:54:13;29.42;;;16.30;;
50249;SDS011;36133;42.522;27.456;2023-03-08T05:56:39;27.27;;;16.50;;
50249;SDS011;36133;42.522;27.456;2023-03-08T05:59:04;26.92;;;15.15;;
50249;SDS011;36133;42.522;27.456;2023-03-08T06:01:30;29.20;;;16.30;;
50249;SDS011;36133;42.522;27.456;2023-03-08T06:07:20;19.40;;;13.77;;
50249;SDS011;36133;42.522;27.456;2023-03-08T06:13:21;22.42;;;14.50;;
50249;SDS011;36133;42.522;27.456;2023-03-08T06:15:46;26.35;;;16.67;;
50249;SDS011;36133;42.522;27.456;2023-03-08T06:18:12;24.65;;;16.80;;
50249;SDS011;36133;42.522;27.456;2023-03-08T06:20:37;19.23;;;12.02;;
50249;SDS011;36133;42.522;27.456;2023-03-08T06:23:03;22.00;;;10.65;;
50249;SDS011;36133;42.522;27.456;2023-03-08T06:25:28;14.23;;;9.18;;
50249;SDS011;36133;42.522;27.456;2023-03-08T06:27:54;16.00;;;9.23;;
50249;SDS011;36133;42.522;27.456;2023-03-08T06:30:19;17.75;;;10.95;;
50249;SDS011;36133;42.522;27.456;2023-03-08T06:32:45;17.25;;;11.73;;
50249;SDS011;36133;42.522;27.456;2023-03-08T06:35:10;24.40;;;14.20;;
50249;SDS011;36133;42.522;27.456;2023-03-08T06:37:36;26.52;;;16.20;;
50249;SDS011;36133;42.522;27.456;2023-03-08T06:40:02;18.63;;;10.90;;
50249;SDS011;36133;42.522;27.456;2023-03-08T06:42:31;18.08;;;9.38;;
50249;SDS011;36133;42.522;27.456;2023-03-08T06:44:56;17.35;;;9.57;;
50249;SDS011;36133;42.522;27.456;2023-03-08T06:47:22;15.23;;;9.43;;
50249;SDS011;36133;42.522;27.456;2023-03-08T06:49:47;18.88;;;9.00;;
50249;SDS011;36133;42.522;27.456;2023-03-08T06:52:13;15.43;;;8.60;;
50249;SDS011;36133;42.522;27.456;2023-03-08T06:54:38;16.70;;;9.73;;
50249;SDS011;36133;42.522;27.456;2023-03-08T06:57:04;21.35;;;13.93;;
50249;SDS011;36133;42.522;27.456;2023-03-08T06:59:30;24.00;;;15.57;;
50249;SDS011;36133;42.522;27.456;2023-03-08T07:01:55;33.72;;;19.80;;
50249;SDS011;36133;42.522;27.456;2023-03-08T07:04:21;40.00;;;23.55;;
50249;SDS011;36133;42.522;27.456;2023-03-08T07:06:46;39.35;;;23.77;;
50249;SDS011;36133;42.522;27.456;2023-03-08T07:09:12;36.80;;;22.05;;
50249;SDS011;36133;42.522;27.456;2023-03-08T07:11:38;31.95;;;17.67;;
50249;SDS011;36133;42.522;27.456;2023-03-08T07:14:04;28.95;;;16.70;;
50249;SDS011;36133;42.522;27.456;2023-03-08T07:16:29;27.08;;;17.58;;
50249;SDS011;36133;42.522;27.456;2023-03-08T07:18:55;30.42;;;18.38;;
50249;SDS011;36133;42.522;27.456;2023-03-08T07:21:21;34.70;;;18.40;;
50249;SDS011;36133;42.522;27.456;2023-03-08T07:23:49;29.40;;;17.98;;
50249;SDS011;36133;42.522;27.456;2023-03-08T07:26:15;42.00;;;21.45;;
50249;SDS011;36133;42.522;27.456;2023-03-08T07:28:40;55.28;;;32.95;;
50249;SDS011;36133;42.522;27.456;2023-03-08T07:31:08;48.92;;;29.92;;
50249;SDS011;36133;42.522;27.456;2023-03-08T07:33:35;47.15;;;28.50;;
50249;SDS011;36133;42.522;27.456;2023-03-08T07:36:03;28.67;;;17.45;;
50249;SDS011;36133;42.522;27.456;2023-03-08T07:38:29;22.98;;;14.60;;
50249;SDS011;36133;42.522;27.456;2023-03-08T07:40:55;35.67;;;19.90;;
50249;SDS011;36133;42.522;27.456;2023-03-08T07:43:21;20.13;;;11.45;;
50249;SDS011;36133;42.522;27.456;2023-03-08T07:45:47;22.23;;;13.48;;
50249;SDS011;36133;42.522;27.456;2023-03-08T07:48:13;25.73;;;16.48;;
50249;SDS011;36133;42.522;27.456;2023-03-08T07:50:39;22.33;;;14.90;;
50249;SDS011;36133;42.522;27.456;2023-03-08T07:53:04;19.00;;;9.00;;
50249;SDS011;36133;42.522;27.456;2023-03-08T07:55:32;12.63;;;7.72;;
50249;SDS011;36133;42.522;27.456;2023-03-08T07:57:58;14.48;;;8.32;;
50249;SDS011;36133;42.522;27.456;2023-03-08T08:00:23;13.90;;;8.70;;
50249;SDS011;36133;42.522;27.456;2023-03-08T08:02:49;25.60;;;9.73;;
50249;SDS011;36133;42.522;27.456;2023-03-08T08:05:17;17.55;;;8.20;;
50249;SDS011;36133;42.522;27.456;2023-03-08T08:07:46;18.50;;;8.93;;
50249;SDS011;36133;42.522;27.456;2023-03-08T08:10:12;19.50;;;10.60;;
50249;SDS011;36133;42.522;27.456;2023-03-08T08:12:37;18.23;;;9.75;;
50249;SDS011;36133;42.522;27.456;2023-03-08T08:15:03;19.75;;;8.10;;
50249;SDS011;36133;42.522;27.456;2023-03-08T08:17:29;15.50;;;7.95;;
50249;SDS011;36133;42.522;27.456;2023-03-08T08:19:55;23.80;;;15.07;;
50249;SDS011;36133;42.522;27.456;2023-03-08T08:22:23;20.38;;;10.25;;
50249;SDS011;36133;42.522;27.456;2023-03-08T08:24:49;14.25;;;7.72;;
50249;SDS011;36133;42.522;27.456;2023-03-08T08:27:14;17.00;;;8.00;;
50249;SDS011;36133;42.522;27.456;2023-03-08T08:29:40;14.25;;;7.95;;
50249;SDS011;36133;42.522;27.456;2023-03-08T08:32:06;15.70;;;9.85;;
50249;SDS011;36133;42.522;27.456;2023-03-08T08:34:31;14.00;;;7.40;;
50249;SDS011;36133;42.522;27.456;2023-03-08T08:36:57;12.82;;;6.20;;
50249;SDS011;36133;42.522;27.456;2023-03-08T08:39:22;12.05;;;5.82;;
50249;SDS011;36133;42.522;27.456;2023-03-08T08:41:48;15.60;;;6.38;;
50249;SDS011;36133;42.522;27.456;2023-03-08T08:44:14;8.27;;;4.90;;
50249;SDS011;36133;42.522;27.456;2023-03-08T08:46:39;19.38;;;6.50;;
50249;SDS011;36133;42.522;27.456;2023-03-08T08:49:05;9.43;;;6.40;;
50249;SDS011;36133;42.522;27.456;2023-03-08T08:51:31;11.02;;;6.70;;
50249;SDS011;36133;42.522;27.456;2023-03-08T08:53:57;9.70;;;5.40;;
50249;SDS011;36133;42.522;27.456;2023-03-08T08:56:23;10.15;;;5.78;;
50249;SDS011;36133;42.522;27.456;2023-03-08T08:58:51;13.15;;;6.85;;
50249;SDS011;36133;42.522;27.456;2023-03-08T09:01:20;17.42;;;8.43;;
50249;SDS011;36133;42.522;27.456;2023-03-08T09:03:48;14.65;;;7.43;;
50249;SDS011;36133;42.522;27.456;2023-03-08T09:06:14;18.83;;;9.75;;
50249;SDS011;36133;42.522;27.456;2023-03-08T09:08:42;9.43;;;6.40;;
50249;SDS011;36133;42.522;27.456;2023-03-08T09:11:08;11.45;;;6.43;;
50249;SDS011;36133;42.522;27.456;2023-03-08T09:13:35;11.00;;;7.15;;
50249;SDS011;36133;42.522;27.456;2023-03-08T09:16:05;9.45;;;5.97;;
50249;SDS011;36133;42.522;27.456;2023-03-08T09:18:31;13.02;;;6.03;;
50249;SDS011;36133;42.522;27.456;2023-03-08T09:20:59;12.60;;;7.65;;
50249;SDS011;36133;42.522;27.456;2023-03-08T09:23:28;11.57;;;7.10;;
50249;SDS011;36133;42.522;27.456;2023-03-08T09:25:55;16.13;;;9.18;;
50249;SDS011;36133;42.522;27.456;2023-03-08T09:28:22;19.20;;;11.70;;
50249;SDS011;36133;42.522;27.456;2023-03-08T09:30:47;14.35;;;9.20;;
50249;SDS011;36133;42.522;27.456;2023-03-08T09:33:13;12.25;;;8.02;;
50249;SDS011;36133;42.522;27.456;2023-03-08T09:35:39;19.05;;;7.55;;
50249;SDS011;36133;42.522;27.456;2023-03-08T09:38:04;13.20;;;6.88;;
50249;SDS011;36133;42.522;27.456;2023-03-08T09:40:30;10.88;;;7.05;;
50249;SDS011;36133;42.522;27.456;2023-03-08T09:43:20;11.43;;;6.80;;
50249;SDS011;36133;42.522;27.456;2023-03-08T09:45:55;8.30;;;5.57;;
50249;SDS011;36133;42.522;27.456;2023-03-08T09:48:22;11.35;;;7.38;;
50249;SDS011;36133;42.522;27.456;2023-03-08T09:50:54;11.02;;;6.72;;
50249;SDS011;36133;42.522;27.456;2023-03-08T09:53:27;7.07;;;4.72;;
50249;SDS011;36133;42.522;27.456;2023-03-08T09:56:34;9.13;;;4.82;;
50249;SDS011;36133;42.522;27.456;2023-03-08T09:59:07;9.15;;;5.13;;
50249;SDS011;36133;42.522;27.456;2023-03-08T10:04:31;8.57;;;4.43;;
50249;SDS011;36133;42.522;27.456;2023-03-08T10:13:00;6.97;;;4.30;;
50249;SDS011;36133;42.522;27.456;2023-03-08T10:15:28;9.23;;;4.43;;
50249;SDS011;36133;42.522;27.456;2023-03-08T10:18:05;9.13;;;4.57;;
50249;SDS011;36133;42.522;27.456;2023-03-08T10:20:35;9.38;;;4.68;;
50249;SDS011;36133;42.522;27.456;2023-03-08T10:23:23;9.00;;;4.20;;
50249;SDS011;36133;42.522;27.456;2023-03-08T10:25:50;5.57;;;3.92;;
50249;SDS011;36133;42.522;27.456;2023-03-08T10:28:18;8.52;;;4.28;;
50249;SDS011;36133;42.522;27.456;2023-03-08T10:30:52;7.00;;;3.67;;
50249;SDS011;36133;42.522;27.456;2023-03-08T10:33:21;9.48;;;4.10;;
50249;SDS011;36133;42.522;27.456;2023-03-08T10:35:59;6.35;;;3.55;;
50249;SDS011;36133;42.522;27.456;2023-03-08T10:38:34;6.30;;;3.65;;
50249;SDS011;36133;42.522;27.456;2023-03-08T10:43:45;9.55;;;4.07;;
50249;SDS011;36133;42.522;27.456;2023-03-08T10:46:12;6.38;;;3.92;;
50249;SDS011;36133;42.522;27.456;2023-03-08T10:48:45;11.15;;;3.90;;
50249;SDS011;36133;42.522;27.456;2023-03-08T10:51:18;7.93;;;4.40;;
50249;SDS011;36133;42.522;27.456;2023-03-08T10:53:56;9.10;;;4.57;;
50249;SDS011;36133;42.522;27.456;2023-03-08T10:58:58;6.15;;;3.47;;
50249;SDS011;36133;42.522;27.456;2023-03-08T11:01:28;5.82;;;3.67;;
50249;SDS011;36133;42.522;27.456;2023-03-08T11:03:58;7.88;;;3.80;;
50249;SDS011;36133;42.522;27.456;2023-03-08T11:06:37;7.35;;;3.85;;
50249;SDS011;36133;42.522;27.456;2023-03-08T11:09:04;9.13;;;4.15;;
50249;SDS011;36133;42.522;27.456;2023-03-08T11:11:45;10.20;;;3.35;;
50249;SDS011;36133;42.522;27.456;2023-03-08T11:14:11;5.28;;;3.50;;
50249;SDS011;36133;42.522;27.456;2023-03-08T11:21:59;5.60;;;3.33;;
50249;SDS011;36133;42.522;27.456;2023-03-08T11:38:06;4.68;;;2.47;;
50249;SDS011;36133;42.522;27.456;2023-03-08T12:00:47;3.67;;;2.85;;
50249;SDS011;36133;42.522;27.456;2023-03-08T12:05:51;7.50;;;3.15;;
50249;SDS011;36133;42.522;27.456;2023-03-08T12:08:28;10.40;;;3.28;;
50249;SDS011;36133;42.522;27.456;2023-03-08T12:11:00;9.43;;;3.72;;
50249;SDS011;36133;42.522;27.456;2023-03-08T12:13:33;9.25;;;3.42;;
50249;SDS011;36133;42.522;27.456;2023-03-08T12:29:53;5.68;;;3.25;;
50249;SDS011;36133;42.522;27.456;2023-03-08T12:32:40;6.85;;;3.60;;
50249;SDS011;36133;42.522;27.456;2023-03-08T12:45:47;6.57;;;3.35;;
50249;SDS011;36133;42.522;27.456;2023-03-08T12:48:28;11.60;;;3.67;;
50249;SDS011;36133;42.522;27.456;2023-03-08T13:01:43;7.35;;;3.40;;
50249;SDS011;36133;42.522;27.456;2023-03-08T13:20:08;6.85;;;3.75;;
50249;SDS011;36133;42.522;27.456;2023-03-08T13:22:46;11.38;;;4.50;;
50249;SDS011;36133;42.522;27.456;2023-03-08T13:25:32;13.32;;;6.00;;
50249;SDS011;36133;42.522;27.456;2023-03-08T13:28:10;12.55;;;6.65;;
50249;SDS011;36133;42.522;27.456;2023-03-08T13:33:17;5.65;;;3.67;;
50249;SDS011;36133;42.522;27.456;2023-03-08T13:36:00;8.38;;;4.43;;
50249;SDS011;36133;42.522;27.456;2023-03-08T13:38:27;6.60;;;3.72;;
50249;SDS011;36133;42.522;27.456;2023-03-08T13:40:55;10.88;;;4.40;;
50249;SDS011;36133;42.522;27.456;2023-03-08T13:43:23;9.82;;;3.88;;
50249;SDS011;36133;42.522;27.456;2023-03-08T13:45:54;4.00;;;2.78;;
50249;SDS011;36133;42.522;27.456;2023-03-08T13:48:23;4.57;;;2.72;;
50249;SDS011;36133;42.522;27.456;2023-03-08T13:50:53;8.77;;;3.55;;
50249;SDS011;36133;42.522;27.456;2023-03-08T13:53:24;9.23;;;3.15;;
50249;SDS011;36133;42.522;27.456;2023-03-08T13:55:54;7.78;;;4.20;;
50249;SDS011;36133;42.522;27.456;2023-03-08T13:58:34;11.30;;;3.63;;
50249;SDS011;36133;42.522;27.456;2023-03-08T14:01:10;10.13;;;3.45;;
50249;SDS011;36133;42.522;27.456;2023-03-08T14:03:38;6.05;;;3.67;;
50249;SDS011;36133;42.522;27.456;2023-03-08T14:08:47;5.93;;;2.97;;
50249;SDS011;36133;42.522;27.456;2023-03-08T14:11:15;6.20;;;4.20;;
50249;SDS011;36133;42.522;27.456;2023-03-08T14:13:53;8.15;;;3.60;;
50249;SDS011;36133;42.522;27.456;2023-03-08T14:16:22;4.40;;;3.28;;
50249;SDS011;36133;42.522;27.456;2023-03-08T14:18:54;11.07;;;4.22;;
50249;SDS011;36133;42.522;27.456;2023-03-08T14:21:27;10.35;;;5.10;;
50249;SDS011;36133;42.522;27.456;2023-03-08T14:23:57;9.55;;;4.75;;
50249;SDS011;36133;42.522;27.456;2023-03-08T14:26:35;7.78;;;4.95;;
50249;SDS011;36133;42.522;27.456;2023-03-08T14:29:12;8.18;;;4.70;;
50249;SDS011;36133;42.522;27.456;2023-03-08T14:31:56;8.50;;;3.22;;
50249;SDS011;36133;42.522;27.456;2023-03-08T14:39:45;11.45;;;5.15;;
50249;SDS011;36133;42.522;27.456;2023-03-08T14:42:19;8.40;;;4.40;;
50249;SDS011;36133;42.522;27.456;2023-03-08T14:44:56;8.63;;;4.00;;
50249;SDS011;36133;42.522;27.456;2023-03-08T14:52:35;8.88;;;3.67;;
50249;SDS011;36133;42.522;27.456;2023-03-08T14:55:24;8.40;;;3.63;;
50249;SDS011;36133;42.522;27.456;2023-03-08T14:57:59;8.90;;;3.90;;
50249;SDS011;36133;42.522;27.456;2023-03-08T15:00:35;11.60;;;4.55;;
50249;SDS011;36133;42.522;27.456;2023-03-08T15:03:02;11.57;;;4.63;;
50249;SDS011;36133;42.522;27.456;2023-03-08T15:05:28;9.68;;;4.95;;
50249;SDS011;36133;42.522;27.456;2023-03-08T15:07:54;12.30;;;5.10;;
50249;SDS011;36133;42.522;27.456;2023-03-08T15:10:32;9.25;;;4.28;;
50249;SDS011;36133;42.522;27.456;2023-03-08T15:13:01;10.18;;;5.05;;
50249;SDS011;36133;42.522;27.456;2023-03-08T15:15:28;8.27;;;3.90;;
50249;SDS011;36133;42.522;27.456;2023-03-08T15:17:54;5.70;;;3.60;;
50249;SDS011;36133;42.522;27.456;2023-03-08T15:20:20;11.90;;;3.60;;
50249;SDS011;36133;42.522;27.456;2023-03-08T15:22:50;9.85;;;4.15;;
50249;SDS011;36133;42.522;27.456;2023-03-08T15:27:52;7.95;;;3.78;;
50249;SDS011;36133;42.522;27.456;2023-03-08T15:30:19;9.32;;;4.00;;
50249;SDS011;36133;42.522;27.456;2023-03-08T15:32:46;11.38;;;3.83;;
50249;SDS011;36133;42.522;27.456;2023-03-08T15:35:12;9.32;;;3.67;;
50249;SDS011;36133;42.522;27.456;2023-03-08T15:37:39;9.93;;;4.80;;
50249;SDS011;36133;42.522;27.456;2023-03-08T15:40:05;13.27;;;4.75;;
50249;SDS011;36133;42.522;27.456;2023-03-08T15:42:39;8.68;;;4.97;;
50249;SDS011;36133;42.522;27.456;2023-03-08T15:45:08;13.77;;;4.40;;
50249;SDS011;36133;42.522;27.456;2023-03-08T15:47:34;7.75;;;3.92;;
50249;SDS011;36133;42.522;27.456;2023-03-08T15:50:02;7.82;;;4.00;;
50249;SDS011;36133;42.522;27.456;2023-03-08T15:52:30;7.75;;;4.32;;
50249;SDS011;36133;42.522;27.456;2023-03-08T15:54:56;12.50;;;4.72;;
50249;SDS011;36133;42.522;27.456;2023-03-08T15:57:22;8.80;;;4.18;;
50249;SDS011;36133;42.522;27.456;2023-03-08T15:59:48;10.45;;;4.63;;
50249;SDS011;36133;42.522;27.456;2023-03-08T16:02:16;21.13;;;8.43;;
50249;SDS011;36133;42.522;27.456;2023-03-08T16:04:43;27.88;;;8.50;;
50249;SDS011;36133;42.522;27.456;2023-03-08T16:07:12;35.95;;;9.90;;
50249;SDS011;36133;42.522;27.456;2023-03-08T16:09:41;29.63;;;9.40;;
50249;SDS011;36133;42.522;27.456;2023-03-08T16:12:07;23.63;;;10.13;;
50249;SDS011;36133;42.522;27.456;2023-03-08T16:14:34;34.15;;;11.63;;
50249;SDS011;36133;42.522;27.456;2023-03-08T16:17:00;39.00;;;13.20;;
50249;SDS011;36133;42.522;27.456;2023-03-08T16:19:29;30.08;;;11.48;;
50249;SDS011;36133;42.522;27.456;2023-03-08T16:21:59;31.40;;;12.95;;
50249;SDS011;36133;42.522;27.456;2023-03-08T16:24:25;37.17;;;14.13;;
50249;SDS011;36133;42.522;27.456;2023-03-08T16:26:51;31.77;;;14.23;;
50249;SDS011;36133;42.522;27.456;2023-03-08T16:29:17;41.33;;;14.55;;
50249;SDS011;36133;42.522;27.456;2023-03-08T16:31:43;36.95;;;15.65;;
50249;SDS011;36133;42.522;27.456;2023-03-08T16:34:09;31.23;;;13.70;;
50249;SDS011;36133;42.522;27.456;2023-03-08T16:36:35;38.10;;;14.40;;
50249;SDS011;36133;42.522;27.456;2023-03-08T16:39:02;30.10;;;14.45;;
50249;SDS011;36133;42.522;27.456;2023-03-08T16:41:28;41.17;;;16.95;;
50249;SDS011;36133;42.522;27.456;2023-03-08T16:43:54;44.22;;;16.85;;
50249;SDS011;36133;42.522;27.456;2023-03-08T16:46:20;60.83;;;18.25;;
50249;SDS011;36133;42.522;27.456;2023-03-08T16:48:47;38.20;;;15.20;;
50249;SDS011;36133;42.522;27.456;2023-03-08T16:51:15;48.60;;;15.80;;
50249;SDS011;36133;42.522;27.456;2023-03-08T16:53:43;38.25;;;17.10;;
50249;SDS011;36133;42.522;27.456;2023-03-08T16:56:15;46.10;;;16.55;;
50249;SDS011;36133;42.522;27.456;2023-03-08T16:58:43;63.42;;;23.38;;
50249;SDS011;36133;42.522;27.456;2023-03-08T17:01:11;49.08;;;17.55;;
50249;SDS011;36133;42.522;27.456;2023-03-08T17:03:38;52.28;;;17.00;;
50249;SDS011;36133;42.522;27.456;2023-03-08T17:06:11;54.53;;;18.08;;